sensor_id;sensor_type;location;lat;lon;timestamp;P1;durP1;ratioP1;P2;durP2;ratioP2
66095;SDS011;53861;53.422;14.530;2023-05-20T00:00:16;16.85;;;5.13;;
66095;SDS011;53861;53.422;14.530;2023-05-20T00:02:45;17.73;;;5.63;;
66095;SDS011;53861;53.422;14.530;2023-05-20T00:05:13;15.00;;;5.10;;
66095;SDS011;53861;53.422;14.530;2023-05-20T00:07:44;18.27;;;5.85;;
66095;SDS011;53861;53.422;14.530;2023-05-20T00:10:12;16.02;;;5.30;;
66095;SDS011;53861;53.422;14.530;2023-05-20T00:12:40;17.58;;;5.63;;
66095;SDS011;53861;53.422;14.530;2023-05-20T00:15:08;18.65;;;5.75;;
66095;SDS011;53861;53.422;14.530;2023-05-20T00:17:38;17.63;;;5.30;;
66095;SDS011;53861;53.422;14.530;2023-05-20T00:20:08;23.02;;;5.70;;
66095;SDS011;53861;53.422;14.530;2023-05-20T00:22:36;21.95;;;5.78;;
66095;SDS011;53861;53.422;14.530;2023-05-20T00:25:07;17.83;;;5.50;;
66095;SDS011;53861;53.422;14.530;2023-05-20T00:27:39;13.43;;;5.22;;
66095;SDS011;53861;53.422;14.530;2023-05-20T00:30:07;14.35;;;5.40;;
66095;SDS011;53861;53.422;14.530;2023-05-20T00:32:37;16.73;;;6.10;;
66095;SDS011;53861;53.422;14.530;2023-05-20T00:35:06;15.30;;;5.10;;
66095;SDS011;53861;53.422;14.530;2023-05-20T00:37:35;14.95;;;5.28;;
66095;SDS011;53861;53.422;14.530;2023-05-20T00:40:03;15.55;;;5.40;;
66095;SDS011;53861;53.422;14.530;2023-05-20T00:42:40;17.48;;;5.75;;
66095;SDS011;53861;53.422;14.530;2023-05-20T00:45:08;17.05;;;5.07;;
66095;SDS011;53861;53.422;14.530;2023-05-20T00:47:38;15.52;;;5.05;;
66095;SDS011;53861;53.422;14.530;2023-05-20T00:50:07;17.60;;;5.30;;
66095;SDS011;53861;53.422;14.530;2023-05-20T00:52:36;18.02;;;5.47;;
66095;SDS011;53861;53.422;14.530;2023-05-20T00:55:06;20.67;;;5.55;;
66095;SDS011;53861;53.422;14.530;2023-05-20T00:57:35;16.05;;;5.88;;
66095;SDS011;53861;53.422;14.530;2023-05-20T01:00:04;21.10;;;5.47;;
66095;SDS011;53861;53.422;14.530;2023-05-20T01:02:35;20.20;;;5.70;;
66095;SDS011;53861;53.422;14.530;2023-05-20T01:05:02;19.00;;;5.15;;
66095;SDS011;53861;53.422;14.530;2023-05-20T01:07:32;19.48;;;5.38;;
66095;SDS011;53861;53.422;14.530;2023-05-20T01:09:59;21.30;;;6.18;;
66095;SDS011;53861;53.422;14.530;2023-05-20T01:12:30;20.67;;;5.93;;
66095;SDS011;53861;53.422;14.530;2023-05-20T01:15:08;20.42;;;5.57;;
66095;SDS011;53861;53.422;14.530;2023-05-20T01:17:39;14.55;;;5.53;;
66095;SDS011;53861;53.422;14.530;2023-05-20T01:20:13;17.38;;;5.35;;
66095;SDS011;53861;53.422;14.530;2023-05-20T01:22:51;23.55;;;5.75;;
66095;SDS011;53861;53.422;14.530;2023-05-20T01:25:27;23.25;;;5.45;;
66095;SDS011;53861;53.422;14.530;2023-05-20T01:27:57;14.73;;;4.95;;
66095;SDS011;53861;53.422;14.530;2023-05-20T01:30:28;13.48;;;5.38;;
66095;SDS011;53861;53.422;14.530;2023-05-20T01:33:04;13.15;;;4.57;;
66095;SDS011;53861;53.422;14.530;2023-05-20T01:35:37;18.75;;;5.30;;
66095;SDS011;53861;53.422;14.530;2023-05-20T01:38:09;18.45;;;6.10;;
66095;SDS011;53861;53.422;14.530;2023-05-20T01:40:41;16.83;;;5.30;;
66095;SDS011;53861;53.422;14.530;2023-05-20T01:43:11;20.10;;;5.43;;
66095;SDS011;53861;53.422;14.530;2023-05-20T01:45:42;14.65;;;5.28;;
66095;SDS011;53861;53.422;14.530;2023-05-20T01:48:11;15.38;;;5.53;;
66095;SDS011;53861;53.422;14.530;2023-05-20T01:50:38;19.25;;;5.75;;
66095;SDS011;53861;53.422;14.530;2023-05-20T01:53:11;14.45;;;5.57;;
66095;SDS011;53861;53.422;14.530;2023-05-20T01:55:39;18.23;;;5.55;;
66095;SDS011;53861;53.422;14.530;2023-05-20T01:58:07;22.67;;;6.03;;
66095;SDS011;53861;53.422;14.530;2023-05-20T02:00:37;21.10;;;5.85;;
66095;SDS011;53861;53.422;14.530;2023-05-20T02:03:06;18.23;;;6.20;;
66095;SDS011;53861;53.422;14.530;2023-05-20T02:05:35;18.75;;;6.22;;
66095;SDS011;53861;53.422;14.530;2023-05-20T02:08:04;19.38;;;6.20;;
66095;SDS011;53861;53.422;14.530;2023-05-20T02:10:35;14.68;;;6.32;;
66095;SDS011;53861;53.422;14.530;2023-05-20T02:13:03;16.88;;;5.63;;
66095;SDS011;53861;53.422;14.530;2023-05-20T02:15:31;16.13;;;5.60;;
66095;SDS011;53861;53.422;14.530;2023-05-20T02:18:01;14.30;;;5.80;;
66095;SDS011;53861;53.422;14.530;2023-05-20T02:20:34;17.73;;;6.03;;
66095;SDS011;53861;53.422;14.530;2023-05-20T02:23:03;16.85;;;5.85;;
66095;SDS011;53861;53.422;14.530;2023-05-20T02:25:31;31.63;;;7.03;;
66095;SDS011;53861;53.422;14.530;2023-05-20T02:28:01;17.35;;;6.10;;
66095;SDS011;53861;53.422;14.530;2023-05-20T02:30:31;19.08;;;6.13;;
66095;SDS011;53861;53.422;14.530;2023-05-20T02:32:59;17.13;;;6.40;;
66095;SDS011;53861;53.422;14.530;2023-05-20T02:35:28;16.58;;;6.43;;
66095;SDS011;53861;53.422;14.530;2023-05-20T02:37:56;19.38;;;6.63;;
66095;SDS011;53861;53.422;14.530;2023-05-20T02:40:25;20.25;;;6.90;;
66095;SDS011;53861;53.422;14.530;2023-05-20T02:42:54;23.23;;;6.22;;
66095;SDS011;53861;53.422;14.530;2023-05-20T02:45:23;17.23;;;6.25;;
66095;SDS011;53861;53.422;14.530;2023-05-20T02:47:51;16.20;;;6.55;;
66095;SDS011;53861;53.422;14.530;2023-05-20T02:50:20;20.50;;;6.75;;
66095;SDS011;53861;53.422;14.530;2023-05-20T02:52:48;21.48;;;6.40;;
66095;SDS011;53861;53.422;14.530;2023-05-20T02:55:16;18.70;;;5.80;;
66095;SDS011;53861;53.422;14.530;2023-05-20T02:57:47;18.33;;;6.32;;
66095;SDS011;53861;53.422;14.530;2023-05-20T03:00:16;18.27;;;6.00;;
66095;SDS011;53861;53.422;14.530;2023-05-20T03:02:46;15.25;;;6.00;;
66095;SDS011;53861;53.422;14.530;2023-05-20T03:07:53;16.98;;;6.38;;
66095;SDS011;53861;53.422;14.530;2023-05-20T03:10:21;17.83;;;5.90;;
66095;SDS011;53861;53.422;14.530;2023-05-20T03:12:52;17.70;;;6.57;;
66095;SDS011;53861;53.422;14.530;2023-05-20T03:15:20;14.63;;;6.10;;
66095;SDS011;53861;53.422;14.530;2023-05-20T03:17:49;25.83;;;6.20;;
66095;SDS011;53861;53.422;14.530;2023-05-20T03:20:19;23.50;;;6.80;;
66095;SDS011;53861;53.422;14.530;2023-05-20T03:22:47;21.48;;;6.95;;
66095;SDS011;53861;53.422;14.530;2023-05-20T03:25:16;16.52;;;6.32;;
66095;SDS011;53861;53.422;14.530;2023-05-20T03:27:45;19.58;;;6.32;;
66095;SDS011;53861;53.422;14.530;2023-05-20T03:30:13;24.80;;;6.53;;
66095;SDS011;53861;53.422;14.530;2023-05-20T03:32:40;15.70;;;6.15;;
66095;SDS011;53861;53.422;14.530;2023-05-20T03:35:10;13.73;;;5.70;;
66095;SDS011;53861;53.422;14.530;2023-05-20T03:37:38;21.95;;;7.55;;
66095;SDS011;53861;53.422;14.530;2023-05-20T03:40:09;22.42;;;7.57;;
66095;SDS011;53861;53.422;14.530;2023-05-20T03:42:40;15.20;;;5.72;;
66095;SDS011;53861;53.422;14.530;2023-05-20T03:45:10;19.08;;;6.85;;
66095;SDS011;53861;53.422;14.530;2023-05-20T03:47:37;19.73;;;6.70;;
66095;SDS011;53861;53.422;14.530;2023-05-20T03:50:05;20.08;;;8.80;;
66095;SDS011;53861;53.422;14.530;2023-05-20T03:52:37;26.90;;;7.10;;
66095;SDS011;53861;53.422;14.530;2023-05-20T03:55:13;20.25;;;7.22;;
66095;SDS011;53861;53.422;14.530;2023-05-20T03:57:41;19.60;;;6.57;;
66095;SDS011;53861;53.422;14.530;2023-05-20T04:00:11;15.98;;;6.85;;
66095;SDS011;53861;53.422;14.530;2023-05-20T04:02:39;15.45;;;5.90;;
66095;SDS011;53861;53.422;14.530;2023-05-20T04:05:08;23.58;;;6.43;;
66095;SDS011;53861;53.422;14.530;2023-05-20T04:07:38;17.90;;;6.88;;
66095;SDS011;53861;53.422;14.530;2023-05-20T04:10:07;23.73;;;6.63;;
66095;SDS011;53861;53.422;14.530;2023-05-20T04:12:36;17.75;;;6.13;;
66095;SDS011;53861;53.422;14.530;2023-05-20T04:15:04;21.35;;;6.63;;
66095;SDS011;53861;53.422;14.530;2023-05-20T04:17:32;19.80;;;6.60;;
66095;SDS011;53861;53.422;14.530;2023-05-20T04:20:03;19.83;;;6.70;;
66095;SDS011;53861;53.422;14.530;2023-05-20T04:22:32;13.32;;;5.97;;
66095;SDS011;53861;53.422;14.530;2023-05-20T04:25:03;19.73;;;6.57;;
66095;SDS011;53861;53.422;14.530;2023-05-20T04:27:31;24.52;;;6.95;;
66095;SDS011;53861;53.422;14.530;2023-05-20T04:29:59;24.38;;;8.40;;
66095;SDS011;53861;53.422;14.530;2023-05-20T04:32:28;21.63;;;6.85;;
66095;SDS011;53861;53.422;14.530;2023-05-20T04:34:56;20.55;;;7.10;;
66095;SDS011;53861;53.422;14.530;2023-05-20T04:37:25;19.73;;;7.28;;
66095;SDS011;53861;53.422;14.530;2023-05-20T04:39:53;20.88;;;7.88;;
66095;SDS011;53861;53.422;14.530;2023-05-20T04:42:23;18.25;;;6.85;;
66095;SDS011;53861;53.422;14.530;2023-05-20T04:44:52;18.60;;;6.70;;
66095;SDS011;53861;53.422;14.530;2023-05-20T04:47:21;22.05;;;6.80;;
66095;SDS011;53861;53.422;14.530;2023-05-20T04:49:48;19.98;;;6.95;;
66095;SDS011;53861;53.422;14.530;2023-05-20T04:52:17;20.52;;;6.80;;
66095;SDS011;53861;53.422;14.530;2023-05-20T04:54:52;22.27;;;6.50;;
66095;SDS011;53861;53.422;14.530;2023-05-20T04:57:24;16.83;;;6.80;;
66095;SDS011;53861;53.422;14.530;2023-05-20T05:00:03;21.98;;;6.88;;
66095;SDS011;53861;53.422;14.530;2023-05-20T05:02:32;16.42;;;6.25;;
66095;SDS011;53861;53.422;14.530;2023-05-20T05:05:00;19.08;;;6.90;;
66095;SDS011;53861;53.422;14.530;2023-05-20T05:07:29;15.75;;;6.40;;
66095;SDS011;53861;53.422;14.530;2023-05-20T05:09:57;16.75;;;7.00;;
66095;SDS011;53861;53.422;14.530;2023-05-20T05:12:27;17.17;;;6.40;;
66095;SDS011;53861;53.422;14.530;2023-05-20T05:14:54;26.25;;;7.10;;
66095;SDS011;53861;53.422;14.530;2023-05-20T05:17:23;24.13;;;7.03;;
66095;SDS011;53861;53.422;14.530;2023-05-20T05:19:58;19.92;;;7.40;;
66095;SDS011;53861;53.422;14.530;2023-05-20T05:22:26;20.00;;;7.05;;
66095;SDS011;53861;53.422;14.530;2023-05-20T05:24:54;25.08;;;7.50;;
66095;SDS011;53861;53.422;14.530;2023-05-20T05:27:23;17.13;;;6.82;;
66095;SDS011;53861;53.422;14.530;2023-05-20T05:29:53;19.60;;;6.78;;
66095;SDS011;53861;53.422;14.530;2023-05-20T05:32:20;17.42;;;6.80;;
66095;SDS011;53861;53.422;14.530;2023-05-20T05:34:51;19.00;;;6.90;;
66095;SDS011;53861;53.422;14.530;2023-05-20T05:37:19;21.23;;;6.57;;
66095;SDS011;53861;53.422;14.530;2023-05-20T05:39:48;18.92;;;7.15;;
66095;SDS011;53861;53.422;14.530;2023-05-20T05:42:17;18.95;;;7.15;;
66095;SDS011;53861;53.422;14.530;2023-05-20T05:44:49;18.02;;;7.30;;
66095;SDS011;53861;53.422;14.530;2023-05-20T05:47:20;26.13;;;8.07;;
66095;SDS011;53861;53.422;14.530;2023-05-20T05:49:48;19.20;;;7.13;;
66095;SDS011;53861;53.422;14.530;2023-05-20T05:52:18;20.35;;;7.10;;
66095;SDS011;53861;53.422;14.530;2023-05-20T05:54:46;19.70;;;7.70;;
66095;SDS011;53861;53.422;14.530;2023-05-20T05:57:13;23.63;;;7.22;;
66095;SDS011;53861;53.422;14.530;2023-05-20T05:59:41;19.10;;;7.28;;
66095;SDS011;53861;53.422;14.530;2023-05-20T06:02:10;15.48;;;6.78;;
66095;SDS011;53861;53.422;14.530;2023-05-20T06:04:42;16.60;;;6.95;;
66095;SDS011;53861;53.422;14.530;2023-05-20T06:07:10;21.90;;;6.85;;
66095;SDS011;53861;53.422;14.530;2023-05-20T06:09:53;24.45;;;7.10;;
66095;SDS011;53861;53.422;14.530;2023-05-20T06:12:22;16.88;;;6.72;;
66095;SDS011;53861;53.422;14.530;2023-05-20T06:14:50;17.75;;;6.93;;
66095;SDS011;53861;53.422;14.530;2023-05-20T06:17:18;16.27;;;6.60;;
66095;SDS011;53861;53.422;14.530;2023-05-20T06:19:49;18.05;;;6.68;;
66095;SDS011;53861;53.422;14.530;2023-05-20T06:22:18;15.60;;;6.78;;
66095;SDS011;53861;53.422;14.530;2023-05-20T06:24:47;20.42;;;7.60;;
66095;SDS011;53861;53.422;14.530;2023-05-20T06:27:16;20.88;;;7.15;;
66095;SDS011;53861;53.422;14.530;2023-05-20T06:29:47;20.10;;;7.38;;
66095;SDS011;53861;53.422;14.530;2023-05-20T06:32:16;19.70;;;7.30;;
66095;SDS011;53861;53.422;14.530;2023-05-20T06:34:46;17.27;;;6.85;;
66095;SDS011;53861;53.422;14.530;2023-05-20T06:37:16;18.83;;;7.07;;
66095;SDS011;53861;53.422;14.530;2023-05-20T06:39:44;17.08;;;6.93;;
66095;SDS011;53861;53.422;14.530;2023-05-20T06:42:16;30.55;;;11.05;;
66095;SDS011;53861;53.422;14.530;2023-05-20T06:44:44;29.42;;;10.93;;
66095;SDS011;53861;53.422;14.530;2023-05-20T06:47:12;20.25;;;6.70;;
66095;SDS011;53861;53.422;14.530;2023-05-20T06:49:41;19.42;;;7.75;;
66095;SDS011;53861;53.422;14.530;2023-05-20T06:52:11;17.27;;;7.00;;
66095;SDS011;53861;53.422;14.530;2023-05-20T06:54:42;21.33;;;7.55;;
66095;SDS011;53861;53.422;14.530;2023-05-20T06:57:23;16.48;;;6.43;;
66095;SDS011;53861;53.422;14.530;2023-05-20T06:59:51;22.50;;;7.97;;
66095;SDS011;53861;53.422;14.530;2023-05-20T07:02:19;16.77;;;5.80;;
66095;SDS011;53861;53.422;14.530;2023-05-20T07:04:47;18.80;;;6.72;;
66095;SDS011;53861;53.422;14.530;2023-05-20T07:07:17;15.25;;;6.78;;
66095;SDS011;53861;53.422;14.530;2023-05-20T07:09:46;16.08;;;6.88;;
66095;SDS011;53861;53.422;14.530;2023-05-20T07:12:14;15.02;;;7.60;;
66095;SDS011;53861;53.422;14.530;2023-05-20T07:14:42;17.50;;;7.45;;
66095;SDS011;53861;53.422;14.530;2023-05-20T07:17:18;22.05;;;7.32;;
66095;SDS011;53861;53.422;14.530;2023-05-20T07:19:55;20.17;;;7.22;;
66095;SDS011;53861;53.422;14.530;2023-05-20T07:22:39;19.48;;;8.02;;
66095;SDS011;53861;53.422;14.530;2023-05-20T07:25:09;23.08;;;7.40;;
66095;SDS011;53861;53.422;14.530;2023-05-20T07:27:36;12.35;;;6.45;;
66095;SDS011;53861;53.422;14.530;2023-05-20T07:30:04;16.50;;;6.70;;
66095;SDS011;53861;53.422;14.530;2023-05-20T07:32:38;17.10;;;6.85;;
66095;SDS011;53861;53.422;14.530;2023-05-20T07:35:07;17.10;;;6.97;;
66095;SDS011;53861;53.422;14.530;2023-05-20T07:37:35;25.10;;;6.95;;
66095;SDS011;53861;53.422;14.530;2023-05-20T07:40:14;15.45;;;6.93;;
66095;SDS011;53861;53.422;14.530;2023-05-20T07:42:45;20.42;;;7.15;;
66095;SDS011;53861;53.422;14.530;2023-05-20T07:45:13;20.77;;;7.40;;
66095;SDS011;53861;53.422;14.530;2023-05-20T07:47:40;15.38;;;6.53;;
66095;SDS011;53861;53.422;14.530;2023-05-20T07:50:08;16.58;;;6.57;;
66095;SDS011;53861;53.422;14.530;2023-05-20T07:52:36;20.92;;;6.78;;
66095;SDS011;53861;53.422;14.530;2023-05-20T07:55:08;19.60;;;6.88;;
66095;SDS011;53861;53.422;14.530;2023-05-20T07:57:36;18.52;;;7.07;;
66095;SDS011;53861;53.422;14.530;2023-05-20T08:00:04;17.63;;;7.30;;
66095;SDS011;53861;53.422;14.530;2023-05-20T08:02:33;15.90;;;7.00;;
66095;SDS011;53861;53.422;14.530;2023-05-20T08:05:06;17.15;;;7.45;;
66095;SDS011;53861;53.422;14.530;2023-05-20T08:07:38;15.18;;;6.95;;
66095;SDS011;53861;53.422;14.530;2023-05-20T08:10:07;18.75;;;7.88;;
66095;SDS011;53861;53.422;14.530;2023-05-20T08:15:06;17.20;;;6.93;;
66095;SDS011;53861;53.422;14.530;2023-05-20T08:17:43;22.42;;;7.50;;
66095;SDS011;53861;53.422;14.530;2023-05-20T08:20:14;22.50;;;7.60;;
66095;SDS011;53861;53.422;14.530;2023-05-20T08:22:46;16.73;;;6.90;;
66095;SDS011;53861;53.422;14.530;2023-05-20T08:25:19;20.25;;;7.78;;
66095;SDS011;53861;53.422;14.530;2023-05-20T08:27:48;18.67;;;7.97;;
66095;SDS011;53861;53.422;14.530;2023-05-20T08:30:15;24.40;;;8.00;;
66095;SDS011;53861;53.422;14.530;2023-05-20T08:32:46;21.55;;;6.53;;
66095;SDS011;53861;53.422;14.530;2023-05-20T08:35:15;23.80;;;7.07;;
66095;SDS011;53861;53.422;14.530;2023-05-20T08:38:07;15.35;;;6.70;;
66095;SDS011;53861;53.422;14.530;2023-05-20T08:40:54;19.63;;;7.18;;
66095;SDS011;53861;53.422;14.530;2023-05-20T08:43:22;26.33;;;7.55;;
66095;SDS011;53861;53.422;14.530;2023-05-20T08:45:59;24.75;;;8.13;;
66095;SDS011;53861;53.422;14.530;2023-05-20T08:48:31;24.55;;;7.82;;
66095;SDS011;53861;53.422;14.530;2023-05-20T08:51:05;20.92;;;7.53;;
66095;SDS011;53861;53.422;14.530;2023-05-20T08:53:39;18.13;;;6.82;;
66095;SDS011;53861;53.422;14.530;2023-05-20T08:56:09;20.60;;;7.40;;
66095;SDS011;53861;53.422;14.530;2023-05-20T08:58:43;22.27;;;8.00;;
66095;SDS011;53861;53.422;14.530;2023-05-20T09:01:17;20.35;;;8.00;;
66095;SDS011;53861;53.422;14.530;2023-05-20T09:03:53;20.55;;;8.75;;
66095;SDS011;53861;53.422;14.530;2023-05-20T09:06:21;14.98;;;6.85;;
66095;SDS011;53861;53.422;14.530;2023-05-20T09:08:53;24.52;;;9.77;;
66095;SDS011;53861;53.422;14.530;2023-05-20T09:11:26;20.25;;;7.85;;
66095;SDS011;53861;53.422;14.530;2023-05-20T09:14:09;23.85;;;8.25;;
66095;SDS011;53861;53.422;14.530;2023-05-20T09:16:38;17.45;;;8.70;;
66095;SDS011;53861;53.422;14.530;2023-05-20T09:19:09;18.30;;;7.82;;
66095;SDS011;53861;53.422;14.530;2023-05-20T09:21:36;17.48;;;7.43;;
66095;SDS011;53861;53.422;14.530;2023-05-20T09:24:05;22.45;;;8.18;;
66095;SDS011;53861;53.422;14.530;2023-05-20T09:26:36;26.42;;;9.25;;
66095;SDS011;53861;53.422;14.530;2023-05-20T09:29:03;17.73;;;8.32;;
66095;SDS011;53861;53.422;14.530;2023-05-20T09:31:30;41.88;;;10.25;;
66095;SDS011;53861;53.422;14.530;2023-05-20T09:33:59;20.80;;;8.40;;
66095;SDS011;53861;53.422;14.530;2023-05-20T09:36:27;23.83;;;8.02;;
66095;SDS011;53861;53.422;14.530;2023-05-20T09:38:57;22.10;;;8.55;;
66095;SDS011;53861;53.422;14.530;2023-05-20T09:41:32;15.23;;;7.25;;
66095;SDS011;53861;53.422;14.530;2023-05-20T09:44:05;19.98;;;8.30;;
66095;SDS011;53861;53.422;14.530;2023-05-20T09:46:33;21.67;;;8.75;;
66095;SDS011;53861;53.422;14.530;2023-05-20T09:49:02;25.58;;;8.05;;
66095;SDS011;53861;53.422;14.530;2023-05-20T09:51:31;21.55;;;8.52;;
66095;SDS011;53861;53.422;14.530;2023-05-20T09:53:59;29.48;;;8.63;;
66095;SDS011;53861;53.422;14.530;2023-05-20T09:56:29;21.02;;;7.90;;
66095;SDS011;53861;53.422;14.530;2023-05-20T09:58:59;20.17;;;7.40;;
66095;SDS011;53861;53.422;14.530;2023-05-20T10:01:28;18.27;;;7.78;;
66095;SDS011;53861;53.422;14.530;2023-05-20T10:03:55;18.05;;;7.40;;
66095;SDS011;53861;53.422;14.530;2023-05-20T10:06:36;19.35;;;7.38;;
66095;SDS011;53861;53.422;14.530;2023-05-20T10:09:36;25.15;;;7.28;;
66095;SDS011;53861;53.422;14.530;2023-05-20T10:12:15;18.67;;;7.70;;
66095;SDS011;53861;53.422;14.530;2023-05-20T10:14:54;19.80;;;7.45;;
66095;SDS011;53861;53.422;14.530;2023-05-20T10:17:35;15.50;;;7.32;;
66095;SDS011;53861;53.422;14.530;2023-05-20T10:20:07;15.35;;;7.35;;
66095;SDS011;53861;53.422;14.530;2023-05-20T10:22:36;21.85;;;7.32;;
66095;SDS011;53861;53.422;14.530;2023-05-20T10:25:05;15.98;;;8.10;;
66095;SDS011;53861;53.422;14.530;2023-05-20T10:27:41;20.98;;;8.30;;
66095;SDS011;53861;53.422;14.530;2023-05-20T10:30:17;21.27;;;8.25;;
66095;SDS011;53861;53.422;14.530;2023-05-20T10:32:51;21.80;;;7.78;;
66095;SDS011;53861;53.422;14.530;2023-05-20T10:35:21;19.10;;;7.68;;
66095;SDS011;53861;53.422;14.530;2023-05-20T10:37:52;19.95;;;8.32;;
66095;SDS011;53861;53.422;14.530;2023-05-20T10:40:21;16.20;;;6.90;;
66095;SDS011;53861;53.422;14.530;2023-05-20T10:42:48;17.50;;;7.85;;
66095;SDS011;53861;53.422;14.530;2023-05-20T10:45:27;22.90;;;7.90;;
66095;SDS011;53861;53.422;14.530;2023-05-20T10:47:55;25.75;;;10.95;;
66095;SDS011;53861;53.422;14.530;2023-05-20T10:50:27;18.65;;;8.00;;
66095;SDS011;53861;53.422;14.530;2023-05-20T10:53:03;25.98;;;8.80;;
66095;SDS011;53861;53.422;14.530;2023-05-20T10:55:34;20.20;;;8.40;;
66095;SDS011;53861;53.422;14.530;2023-05-20T10:58:04;18.15;;;7.60;;
66095;SDS011;53861;53.422;14.530;2023-05-20T11:00:34;18.15;;;7.97;;
66095;SDS011;53861;53.422;14.530;2023-05-20T11:03:02;20.08;;;8.35;;
66095;SDS011;53861;53.422;14.530;2023-05-20T11:05:31;22.70;;;8.23;;
66095;SDS011;53861;53.422;14.530;2023-05-20T11:08:01;21.80;;;8.30;;
66095;SDS011;53861;53.422;14.530;2023-05-20T11:10:29;18.42;;;8.40;;
66095;SDS011;53861;53.422;14.530;2023-05-20T11:12:57;17.60;;;7.57;;
66095;SDS011;53861;53.422;14.530;2023-05-20T11:15:24;16.98;;;7.97;;
66095;SDS011;53861;53.422;14.530;2023-05-20T11:17:53;30.42;;;8.05;;
66095;SDS011;53861;53.422;14.530;2023-05-20T11:20:21;15.85;;;7.13;;
66095;SDS011;53861;53.422;14.530;2023-05-20T11:22:49;16.95;;;6.80;;
66095;SDS011;53861;53.422;14.530;2023-05-20T11:25:17;21.02;;;7.57;;
66095;SDS011;53861;53.422;14.530;2023-05-20T11:27:45;17.45;;;7.70;;
66095;SDS011;53861;53.422;14.530;2023-05-20T11:30:12;17.65;;;8.20;;
66095;SDS011;53861;53.422;14.530;2023-05-20T11:32:41;17.02;;;7.03;;
66095;SDS011;53861;53.422;14.530;2023-05-20T11:35:20;15.40;;;7.43;;
66095;SDS011;53861;53.422;14.530;2023-05-20T11:37:52;18.25;;;8.85;;
66095;SDS011;53861;53.422;14.530;2023-05-20T11:40:22;17.20;;;7.00;;
66095;SDS011;53861;53.422;14.530;2023-05-20T11:42:54;15.55;;;7.68;;
66095;SDS011;53861;53.422;14.530;2023-05-20T11:45:21;17.35;;;7.32;;
66095;SDS011;53861;53.422;14.530;2023-05-20T11:47:58;19.83;;;7.80;;
66095;SDS011;53861;53.422;14.530;2023-05-20T11:50:32;16.73;;;6.80;;
66095;SDS011;53861;53.422;14.530;2023-05-20T11:53:01;13.73;;;7.07;;
66095;SDS011;53861;53.422;14.530;2023-05-20T11:55:30;13.18;;;6.82;;
66095;SDS011;53861;53.422;14.530;2023-05-20T11:57:59;19.65;;;9.38;;
66095;SDS011;53861;53.422;14.530;2023-05-20T12:00:26;15.25;;;7.30;;
66095;SDS011;53861;53.422;14.530;2023-05-20T12:02:54;18.08;;;7.43;;
66095;SDS011;53861;53.422;14.530;2023-05-20T12:05:21;17.35;;;8.85;;
66095;SDS011;53861;53.422;14.530;2023-05-20T12:07:50;17.52;;;7.15;;
66095;SDS011;53861;53.422;14.530;2023-05-20T12:10:17;21.58;;;7.30;;
66095;SDS011;53861;53.422;14.530;2023-05-20T12:12:45;15.80;;;6.70;;
66095;SDS011;53861;53.422;14.530;2023-05-20T12:15:12;14.18;;;7.60;;
66095;SDS011;53861;53.422;14.530;2023-05-20T12:17:43;13.80;;;6.63;;
66095;SDS011;53861;53.422;14.530;2023-05-20T12:20:13;12.23;;;6.17;;
66095;SDS011;53861;53.422;14.530;2023-05-20T12:22:41;15.00;;;7.40;;
66095;SDS011;53861;53.422;14.530;2023-05-20T12:25:11;14.15;;;6.95;;
66095;SDS011;53861;53.422;14.530;2023-05-20T12:27:40;13.93;;;6.25;;
66095;SDS011;53861;53.422;14.530;2023-05-20T12:30:08;13.52;;;7.53;;
66095;SDS011;53861;53.422;14.530;2023-05-20T12:32:36;15.60;;;6.93;;
66095;SDS011;53861;53.422;14.530;2023-05-20T12:35:04;13.73;;;6.60;;
66095;SDS011;53861;53.422;14.530;2023-05-20T12:37:32;15.38;;;7.20;;
66095;SDS011;53861;53.422;14.530;2023-05-20T12:40:00;15.98;;;6.70;;
66095;SDS011;53861;53.422;14.530;2023-05-20T12:42:34;14.02;;;6.10;;
66095;SDS011;53861;53.422;14.530;2023-05-20T12:45:01;13.75;;;6.68;;
66095;SDS011;53861;53.422;14.530;2023-05-20T12:47:30;14.23;;;5.97;;
66095;SDS011;53861;53.422;14.530;2023-05-20T12:49:57;13.18;;;6.30;;
66095;SDS011;53861;53.422;14.530;2023-05-20T12:52:25;19.75;;;8.02;;
66095;SDS011;53861;53.422;14.530;2023-05-20T12:54:53;19.95;;;5.78;;
66095;SDS011;53861;53.422;14.530;2023-05-20T12:57:20;13.88;;;6.43;;
66095;SDS011;53861;53.422;14.530;2023-05-20T12:59:49;13.32;;;6.40;;
66095;SDS011;53861;53.422;14.530;2023-05-20T13:02:18;16.13;;;5.85;;
66095;SDS011;53861;53.422;14.530;2023-05-20T13:04:45;13.98;;;5.97;;
66095;SDS011;53861;53.422;14.530;2023-05-20T13:07:13;12.20;;;6.13;;
66095;SDS011;53861;53.422;14.530;2023-05-20T13:09:40;14.70;;;6.80;;
66095;SDS011;53861;53.422;14.530;2023-05-20T13:12:07;11.32;;;5.82;;
66095;SDS011;53861;53.422;14.530;2023-05-20T13:14:35;14.25;;;5.57;;
66095;SDS011;53861;53.422;14.530;2023-05-20T13:17:04;11.38;;;5.80;;
66095;SDS011;53861;53.422;14.530;2023-05-20T13:19:31;11.23;;;5.63;;
66095;SDS011;53861;53.422;14.530;2023-05-20T13:21:59;12.73;;;5.95;;
66095;SDS011;53861;53.422;14.530;2023-05-20T13:24:26;11.30;;;5.72;;
66095;SDS011;53861;53.422;14.530;2023-05-20T13:26:54;11.57;;;5.40;;
66095;SDS011;53861;53.422;14.530;2023-05-20T13:29:21;14.52;;;5.82;;
66095;SDS011;53861;53.422;14.530;2023-05-20T13:31:48;11.77;;;5.78;;
66095;SDS011;53861;53.422;14.530;2023-05-20T13:34:17;9.35;;;5.20;;
66095;SDS011;53861;53.422;14.530;2023-05-20T13:36:44;11.85;;;5.95;;
66095;SDS011;53861;53.422;14.530;2023-05-20T13:39:13;14.25;;;5.72;;
66095;SDS011;53861;53.422;14.530;2023-05-20T13:41:41;11.82;;;5.07;;
66095;SDS011;53861;53.422;14.530;2023-05-20T13:44:09;11.95;;;5.72;;
66095;SDS011;53861;53.422;14.530;2023-05-20T13:46:36;13.18;;;5.55;;
66095;SDS011;53861;53.422;14.530;2023-05-20T13:49:03;13.40;;;6.05;;
66095;SDS011;53861;53.422;14.530;2023-05-20T13:51:32;15.18;;;5.30;;
66095;SDS011;53861;53.422;14.530;2023-05-20T13:53:59;12.93;;;4.93;;
66095;SDS011;53861;53.422;14.530;2023-05-20T13:56:27;10.52;;;5.55;;
66095;SDS011;53861;53.422;14.530;2023-05-20T13:58:54;10.85;;;5.30;;
66095;SDS011;53861;53.422;14.530;2023-05-20T14:01:21;10.55;;;5.10;;
66095;SDS011;53861;53.422;14.530;2023-05-20T14:03:49;13.82;;;5.72;;
66095;SDS011;53861;53.422;14.530;2023-05-20T14:06:16;13.45;;;5.35;;
66095;SDS011;53861;53.422;14.530;2023-05-20T14:08:45;12.57;;;5.60;;
66095;SDS011;53861;53.422;14.530;2023-05-20T14:11:13;9.70;;;5.32;;
66095;SDS011;53861;53.422;14.530;2023-05-20T14:13:41;13.15;;;5.28;;
66095;SDS011;53861;53.422;14.530;2023-05-20T14:16:09;11.68;;;5.60;;
66095;SDS011;53861;53.422;14.530;2023-05-20T14:18:36;9.15;;;4.78;;
66095;SDS011;53861;53.422;14.530;2023-05-20T14:21:04;13.98;;;5.60;;
66095;SDS011;53861;53.422;14.530;2023-05-20T14:23:31;10.30;;;5.32;;
66095;SDS011;53861;53.422;14.530;2023-05-20T14:26:00;15.43;;;6.00;;
66095;SDS011;53861;53.422;14.530;2023-05-20T14:28:27;17.45;;;6.15;;
66095;SDS011;53861;53.422;14.530;2023-05-20T14:30:54;13.02;;;5.85;;
66095;SDS011;53861;53.422;14.530;2023-05-20T14:33:21;13.65;;;5.50;;
66095;SDS011;53861;53.422;14.530;2023-05-20T14:35:49;11.43;;;5.22;;
66095;SDS011;53861;53.422;14.530;2023-05-20T14:38:16;14.02;;;4.97;;
66095;SDS011;53861;53.422;14.530;2023-05-20T14:40:45;12.52;;;4.90;;